createdAt,value
2023-05-17T00:01:39.400Z,6.30
2023-05-17T00:04:13.425Z,11.20
2023-05-17T00:06:47.318Z,7.00
2023-05-17T00:09:22.254Z,8.50
2023-05-17T00:11:56.053Z,3.60
2023-05-17T00:16:46.050Z,4.30
2023-05-17T00:19:21.068Z,9.70
2023-05-17T00:21:48.001Z,6.80
2023-05-17T00:24:22.013Z,4.70
2023-05-17T00:26:48.175Z,4.40
2023-05-17T00:29:11.071Z,7.40
2023-05-17T00:31:45.600Z,5.70
2023-05-17T00:34:19.510Z,6.60
2023-05-17T00:36:53.977Z,5.90
2023-05-17T00:39:28.220Z,7.70
2023-05-17T00:42:03.110Z,4.60
2023-05-17T00:44:37.324Z,2.20
2023-05-17T00:47:03.937Z,5.30
2023-05-17T00:49:26.971Z,7.60
2023-05-17T00:52:02.018Z,8.00
2023-05-17T00:54:37.543Z,8.30
2023-05-17T00:57:12.479Z,4.90
2023-05-17T00:59:48.311Z,11.80
2023-05-17T01:02:21.780Z,11.10
2023-05-17T01:04:48.588Z,6.70
2023-05-17T01:07:22.614Z,9.50
2023-05-17T01:09:56.759Z,11.50
2023-05-17T01:12:43.332Z,5.30
2023-05-17T01:15:23.201Z,8.10
2023-05-17T01:18:04.608Z,5.20
2023-05-17T01:20:43.427Z,5.50
2023-05-17T01:23:24.688Z,12.10
2023-05-17T01:26:17.379Z,12.80
2023-05-17T01:28:41.209Z,5.60
2023-05-17T01:31:15.358Z,6.90
2023-05-17T01:33:49.186Z,5.70
2023-05-17T01:36:24.628Z,12.10
2023-05-17T01:38:58.668Z,10.30
2023-05-17T01:41:39.988Z,5.60
2023-05-17T01:44:13.256Z,14.20
2023-05-17T01:46:49.096Z,6.90
2023-05-17T01:49:20.143Z,5.90
2023-05-17T01:51:48.479Z,6.50
2023-05-17T01:54:13.419Z,11.30
2023-05-17T01:56:44.837Z,8.50
2023-05-17T01:59:26.382Z,8.90
2023-05-17T02:02:07.387Z,7.50
2023-05-17T02:04:42.957Z,14.20
2023-05-17T02:07:16.047Z,9.70
2023-05-17T02:09:50.208Z,7.90
2023-05-17T02:12:24.633Z,21.80
2023-05-17T02:14:58.567Z,15.10
2023-05-17T02:17:32.389Z,10.00
2023-05-17T02:20:06.686Z,13.10
2023-05-17T02:22:40.472Z,12.40
2023-05-17T02:25:15.932Z,12.20
2023-05-17T02:27:50.046Z,6.10
2023-05-17T02:30:25.889Z,5.20
2023-05-17T02:33:00.373Z,7.80
2023-05-17T02:35:35.953Z,3.40
2023-05-17T02:38:11.002Z,5.30
2023-05-17T02:40:47.742Z,6.20
2023-05-17T02:43:21.151Z,6.60
2023-05-17T02:45:56.012Z,4.90
2023-05-17T02:48:31.050Z,3.50
2023-05-17T02:51:05.132Z,4.20
2023-05-17T02:53:39.166Z,3.70
2023-05-17T02:56:14.084Z,3.90
2023-05-17T02:58:37.016Z,5.10
2023-05-17T03:01:10.646Z,5.10
2023-05-17T03:03:44.931Z,3.00
2023-05-17T03:06:19.569Z,3.70
2023-05-17T03:08:53.551Z,4.10
2023-05-17T03:11:27.099Z,4.70
2023-05-17T03:14:02.238Z,4.80
2023-05-17T03:16:36.349Z,3.60
2023-05-17T03:18:59.816Z,3.40
2023-05-17T03:21:53.681Z,5.40
2023-05-17T03:24:27.587Z,9.60
2023-05-17T03:27:01.743Z,6.60
2023-05-17T03:29:37.509Z,5.10
2023-05-17T03:32:14.383Z,8.80
2023-05-17T03:34:50.281Z,5.40
2023-05-17T03:37:24.648Z,4.50
2023-05-17T03:39:58.658Z,6.40
2023-05-17T03:42:33.195Z,5.20
2023-05-17T03:47:26.605Z,5.30
2023-05-17T03:50:01.341Z,5.70
2023-05-17T03:52:35.771Z,4.90
2023-05-17T03:55:10.593Z,7.10
2023-05-17T03:57:45.927Z,4.30
2023-05-17T04:00:11.803Z,9.90
2023-05-17T04:02:28.726Z,5.30
2023-05-17T04:05:02.702Z,5.90
2023-05-17T04:07:38.068Z,6.60
2023-05-17T04:10:12.461Z,17.10
2023-05-17T04:12:46.597Z,11.30
2023-05-17T04:15:21.990Z,5.10
2023-05-17T04:17:56.734Z,5.20
2023-05-17T04:20:30.620Z,6.10
2023-05-17T04:23:04.327Z,4.00
2023-05-17T04:25:40.056Z,4.80
2023-05-17T04:28:02.491Z,4.00
2023-05-17T04:30:36.742Z,8.60
2023-05-17T04:33:13.497Z,3.50
2023-05-17T04:35:49.833Z,4.90
2023-05-17T04:38:24.830Z,5.20
2023-05-17T04:40:51.831Z,4.30
2023-05-17T04:43:27.853Z,5.50
2023-05-17T04:46:06.974Z,4.10
2023-05-17T04:48:41.872Z,5.30
2023-05-17T04:51:16.320Z,3.90
2023-05-17T04:53:51.389Z,5.60
2023-05-17T04:56:24.996Z,3.50
2023-05-17T04:58:52.960Z,4.70
2023-05-17T05:01:28.061Z,4.10
2023-05-17T05:03:50.234Z,3.50
2023-05-17T05:06:23.699Z,5.00
2023-05-17T05:08:45.498Z,8.20
2023-05-17T05:11:11.987Z,4.50
2023-05-17T05:13:45.791Z,5.70
2023-05-17T05:16:20.431Z,6.00
2023-05-17T05:18:46.850Z,5.70
2023-05-17T05:21:09.940Z,3.80
2023-05-17T05:23:43.477Z,6.10
2023-05-17T05:26:17.607Z,3.40
2023-05-17T05:28:40.776Z,10.00
2023-05-17T05:31:14.495Z,1.70
2023-05-17T05:33:48.691Z,5.60
2023-05-17T05:36:22.308Z,5.60
2023-05-17T05:38:56.356Z,4.90
2023-05-17T05:41:32.497Z,6.70
2023-05-17T05:44:06.167Z,5.80
2023-05-17T05:46:41.564Z,7.00
2023-05-17T05:49:05.039Z,4.90
2023-05-17T05:51:39.383Z,4.60
2023-05-17T05:54:15.592Z,4.80
2023-05-17T05:56:50.048Z,4.10
2023-05-17T05:59:24.503Z,4.90
2023-05-17T06:01:59.185Z,4.60
2023-05-17T06:04:44.671Z,3.30
2023-05-17T06:07:19.607Z,9.10
2023-05-17T06:09:53.242Z,3.00
2023-05-17T06:12:16.188Z,7.60
2023-05-17T06:14:43.271Z,5.50
2023-05-17T06:17:17.374Z,1.90
2023-05-17T06:19:39.945Z,2.90
2023-05-17T06:22:14.356Z,3.40
2023-05-17T06:24:48.265Z,5.00
2023-05-17T06:27:23.083Z,8.40
2023-05-17T06:29:56.573Z,2.90
2023-05-17T06:32:30.829Z,2.60
2023-05-17T06:35:06.232Z,3.20
2023-05-17T06:37:40.171Z,2.60
2023-05-17T06:40:17.132Z,8.60
2023-05-17T06:42:41.363Z,4.40
2023-05-17T06:45:17.606Z,3.20
2023-05-17T06:47:40.746Z,6.00
2023-05-17T06:50:16.356Z,7.30
2023-05-17T06:52:50.187Z,4.80
2023-05-17T06:55:24.312Z,2.20
2023-05-17T06:57:46.033Z,6.90
2023-05-17T07:00:24.133Z,4.00
2023-05-17T07:02:58.147Z,5.50
2023-05-17T07:05:33.265Z,5.80
2023-05-17T07:08:07.292Z,7.60
2023-05-17T07:10:29.726Z,6.90
2023-05-17T07:13:05.786Z,5.20
2023-05-17T07:15:39.944Z,3.30
2023-05-17T07:18:14.843Z,6.20
2023-05-17T07:20:48.765Z,8.40
2023-05-17T07:23:23.712Z,9.80
2023-05-17T07:25:52.307Z,12.70
2023-05-17T07:28:25.562Z,7.90
2023-05-17T07:31:00.902Z,7.40
2023-05-17T07:33:35.121Z,6.40
2023-05-17T07:36:09.780Z,3.00
2023-05-17T07:38:38.555Z,8.70
2023-05-17T07:41:11.074Z,5.50
2023-05-17T07:43:46.423Z,13.00
2023-05-17T07:46:20.328Z,5.60
2023-05-17T07:48:58.230Z,4.70
2023-05-17T07:51:21.852Z,5.50
2023-05-17T07:53:56.587Z,5.40
2023-05-17T07:56:29.967Z,2.90
2023-05-17T07:58:53.975Z,5.00
2023-05-17T08:01:28.175Z,6.80
2023-05-17T08:04:02.171Z,3.00
2023-05-17T08:06:35.957Z,6.10
2023-05-17T08:09:03.638Z,3.20
2023-05-17T08:11:39.245Z,4.10
2023-05-17T08:14:01.092Z,5.50
2023-05-17T08:16:35.832Z,6.10
2023-05-17T08:19:10.795Z,3.30
2023-05-17T08:21:45.513Z,4.50
2023-05-17T08:24:21.246Z,4.30
2023-05-17T08:26:54.177Z,3.70
2023-05-17T08:29:30.604Z,5.90
2023-05-17T08:32:05.032Z,3.00
2023-05-17T08:34:42.362Z,5.50
2023-05-17T08:37:17.660Z,5.00
2023-05-17T08:39:55.503Z,6.10
2023-05-17T08:42:29.999Z,6.70
2023-05-17T08:45:04.918Z,4.90
2023-05-17T08:47:39.007Z,7.00
2023-05-17T08:50:14.468Z,6.30
2023-05-17T08:52:52.661Z,7.80
2023-05-17T08:55:27.527Z,2.60
2023-05-17T08:58:02.505Z,5.70
2023-05-17T09:00:36.104Z,11.90
2023-05-17T09:03:10.270Z,6.30
2023-05-17T09:05:44.511Z,6.10
2023-05-17T09:08:19.072Z,6.50
2023-05-17T09:10:52.726Z,8.80
2023-05-17T09:13:28.719Z,4.60
2023-05-17T09:16:02.856Z,5.10
2023-05-17T09:18:40.096Z,16.70
2023-05-17T09:21:11.194Z,18.60
2023-05-17T09:23:54.262Z,12.40
2023-05-17T09:26:45.688Z,10.20
2023-05-17T09:29:20.617Z,7.50
2023-05-17T09:31:54.597Z,8.90
2023-05-17T09:34:30.718Z,11.10
2023-05-17T09:36:58.554Z,7.90
2023-05-17T09:39:35.398Z,8.40
2023-05-17T09:42:08.519Z,4.20
2023-05-17T09:44:51.885Z,4.10
2023-05-17T09:47:35.172Z,3.10
2023-05-17T09:50:10.280Z,2.60
2023-05-17T09:52:44.992Z,1.60
2023-05-17T09:55:11.071Z,3.40
2023-05-17T09:57:46.390Z,3.90
2023-05-17T10:00:25.750Z,3.60
2023-05-17T10:03:00.617Z,5.20
2023-05-17T10:05:32.429Z,3.40
2023-05-17T10:08:10.147Z,5.20
2023-05-17T10:10:49.999Z,4.60
2023-05-17T10:13:25.973Z,5.60
2023-05-17T10:16:02.076Z,4.80
2023-05-17T10:18:36.938Z,2.50
2023-05-17T10:21:11.876Z,2.70
2023-05-17T10:23:48.208Z,3.50
2023-05-17T10:26:24.001Z,5.80
2023-05-17T10:29:01.776Z,3.10
2023-05-17T10:31:24.584Z,5.00
2023-05-17T10:33:53.677Z,5.30
2023-05-17T10:36:28.032Z,8.50
2023-05-17T10:38:51.540Z,6.10
2023-05-17T10:41:27.741Z,7.10
2023-05-17T10:43:53.010Z,3.10
2023-05-17T10:46:27.286Z,6.70
2023-05-17T10:49:02.943Z,4.90
2023-05-17T10:51:28.558Z,5.50
2023-05-17T10:54:19.633Z,4.60
2023-05-17T10:56:57.465Z,5.00
2023-05-17T10:59:33.537Z,3.50
2023-05-17T11:02:06.321Z,4.70
2023-05-17T11:07:28.308Z,6.70
2023-05-17T11:10:15.431Z,6.40
2023-05-17T11:12:56.457Z,11.20
2023-05-17T11:15:36.768Z,9.00
2023-05-17T11:18:29.189Z,11.20
2023-05-17T11:21:17.319Z,4.80
2023-05-17T11:23:52.507Z,5.20
2023-05-17T11:26:37.678Z,6.20
2023-05-17T11:29:10.002Z,1.90
2023-05-17T11:31:39.011Z,3.00
2023-05-17T11:34:13.032Z,3.90
2023-05-17T11:36:58.585Z,4.70
2023-05-17T11:39:23.136Z,3.80
2023-05-17T11:41:57.920Z,4.80
2023-05-17T11:44:26.360Z,2.00
2023-05-17T11:47:07.900Z,2.40
2023-05-17T11:49:44.101Z,2.80
2023-05-17T11:52:19.860Z,5.10
2023-05-17T11:54:44.556Z,4.40
2023-05-17T11:57:22.694Z,4.80
2023-05-17T11:59:50.290Z,2.10
2023-05-17T12:02:37.700Z,4.20
2023-05-17T12:05:12.107Z,2.60
2023-05-17T12:07:45.641Z,3.40
2023-05-17T12:10:22.950Z,2.50
2023-05-17T12:12:57.886Z,2.60
2023-05-17T12:15:25.803Z,3.40
2023-05-17T12:18:00.593Z,2.70
2023-05-17T12:20:36.458Z,2.00
2023-05-17T12:23:10.679Z,2.10
2023-05-17T12:25:45.280Z,2.50
2023-05-17T12:28:23.782Z,4.10
2023-05-17T12:31:04.217Z,3.20
2023-05-17T12:33:42.490Z,3.80
2023-05-17T12:36:17.121Z,4.50
2023-05-17T12:38:45.980Z,4.30
2023-05-17T12:41:10.723Z,5.20
2023-05-17T12:43:41.001Z,4.50
2023-05-17T12:46:15.390Z,2.70
2023-05-17T12:48:39.526Z,2.60
2023-05-17T12:51:10.051Z,3.20
2023-05-17T12:53:47.564Z,2.80
2023-05-17T12:56:12.564Z,6.20
2023-05-17T12:58:48.024Z,3.60
2023-05-17T13:01:15.653Z,3.60
2023-05-17T13:03:57.120Z,1.70
2023-05-17T13:06:31.742Z,2.40
2023-05-17T13:09:05.164Z,2.90
2023-05-17T13:11:42.382Z,4.20
2023-05-17T13:14:15.953Z,3.20
2023-05-17T13:16:51.346Z,1.70
2023-05-17T13:19:28.775Z,1.90
2023-05-17T13:21:56.065Z,4.30
2023-05-17T13:24:31.501Z,3.00
2023-05-17T13:26:54.668Z,2.70
2023-05-17T13:29:38.001Z,3.00
2023-05-17T13:32:16.311Z,2.80
2023-05-17T13:34:50.477Z,4.50
2023-05-17T13:37:25.370Z,2.20
2023-05-17T13:39:50.567Z,1.80
2023-05-17T13:42:24.559Z,1.80
2023-05-17T13:44:58.789Z,2.90
2023-05-17T13:47:33.397Z,1.70
2023-05-17T13:50:09.403Z,1.20
2023-05-17T13:52:45.110Z,4.30
2023-05-17T13:55:18.844Z,7.70
2023-05-17T13:57:53.053Z,1.60
2023-05-17T14:00:28.459Z,3.30
2023-05-17T14:03:04.807Z,3.10
2023-05-17T14:05:38.791Z,2.20
2023-05-17T14:08:15.162Z,2.80
2023-05-17T14:10:51.947Z,4.30
2023-05-17T14:13:26.001Z,2.60
2023-05-17T14:15:49.503Z,1.50
2023-05-17T14:18:16.723Z,1.40
2023-05-17T14:20:54.458Z,2.60
2023-05-17T14:23:27.944Z,1.90
2023-05-17T14:26:03.907Z,1.30
2023-05-17T14:28:39.269Z,1.10
2023-05-17T14:31:13.768Z,2.70
2023-05-17T14:33:37.325Z,3.20
2023-05-17T14:36:13.916Z,3.70
2023-05-17T14:38:49.439Z,2.30
2023-05-17T14:41:23.244Z,1.50
2023-05-17T14:43:46.465Z,3.10
2023-05-17T14:46:20.781Z,5.70
2023-05-17T14:48:54.652Z,2.20
2023-05-17T14:51:19.854Z,1.70
2023-05-17T14:53:53.857Z,1.90
2023-05-17T14:56:17.947Z,7.20
2023-05-17T14:58:51.462Z,8.00
2023-05-17T15:01:25.547Z,6.40
2023-05-17T15:04:00.143Z,3.50
2023-05-17T15:06:34.981Z,6.70
2023-05-17T15:08:59.273Z,8.20
2023-05-17T15:11:23.188Z,4.50
2023-05-17T15:13:57.506Z,2.30
2023-05-17T15:16:32.565Z,6.10
2023-05-17T15:19:08.824Z,3.00
2023-05-17T15:21:37.076Z,3.90
2023-05-17T15:24:13.584Z,9.80
2023-05-17T15:26:48.596Z,6.70
2023-05-17T15:29:22.528Z,4.90
2023-05-17T15:31:56.553Z,10.40
2023-05-17T15:34:31.886Z,5.60
2023-05-17T15:36:51.431Z,3.00
2023-05-17T15:39:27.291Z,10.20
2023-05-17T15:42:01.000Z,5.20
2023-05-17T15:44:34.838Z,7.20
2023-05-17T15:47:08.333Z,4.50
2023-05-17T15:49:32.175Z,3.90
2023-05-17T15:52:05.862Z,6.50
2023-05-17T15:54:40.128Z,10.30
2023-05-17T15:57:15.974Z,12.60
2023-05-17T15:59:50.248Z,21.50
2023-05-17T16:02:25.662Z,6.20
2023-05-17T16:05:01.754Z,9.80
2023-05-17T16:07:37.729Z,11.70
2023-05-17T16:10:13.041Z,12.00
2023-05-17T16:12:48.576Z,11.70
2023-05-17T16:15:12.348Z,8.60
2023-05-17T16:17:45.797Z,12.00
2023-05-17T16:20:22.949Z,12.10
2023-05-17T16:22:58.699Z,7.10
2023-05-17T16:25:32.511Z,7.70
2023-05-17T16:28:07.267Z,7.30
2023-05-17T16:30:42.009Z,10.10
2023-05-17T16:33:15.766Z,8.70
2023-05-17T16:35:53.310Z,8.50
2023-05-17T16:38:27.973Z,7.50
2023-05-17T16:41:06.376Z,7.50
2023-05-17T16:43:41.144Z,7.40
2023-05-17T16:46:14.266Z,7.00
2023-05-17T16:48:49.841Z,10.30
2023-05-17T16:51:25.493Z,11.70
2023-05-17T16:53:58.901Z,8.80
2023-05-17T16:56:34.922Z,8.10
2023-05-17T16:59:09.801Z,12.50
2023-05-17T17:01:37.354Z,10.90
2023-05-17T17:04:12.826Z,12.00
2023-05-17T17:06:39.697Z,14.50
2023-05-17T17:09:13.987Z,8.90
2023-05-17T17:11:48.213Z,6.80
2023-05-17T17:14:23.199Z,6.40
2023-05-17T17:16:56.811Z,13.40
2023-05-17T17:19:32.527Z,6.60
2023-05-17T17:22:07.804Z,11.50
2023-05-17T17:24:28.426Z,13.90
2023-05-17T17:26:54.221Z,6.00
2023-05-17T17:29:20.142Z,14.00
2023-05-17T17:31:53.864Z,9.80
2023-05-17T17:34:28.409Z,7.00
2023-05-17T17:37:03.942Z,11.00
2023-05-17T17:39:37.321Z,10.20
2023-05-17T17:42:12.374Z,10.20
2023-05-17T17:44:41.607Z,11.10
2023-05-17T17:47:15.975Z,9.10
2023-05-17T17:49:49.285Z,9.70
2023-05-17T17:52:23.678Z,10.80
2023-05-17T17:54:47.950Z,5.70
2023-05-17T17:57:23.129Z,15.50
2023-05-17T17:59:45.430Z,10.20
2023-05-17T18:02:07.498Z,13.90
2023-05-17T18:04:42.560Z,9.50
2023-05-17T18:07:17.562Z,12.00
2023-05-17T18:09:54.793Z,14.90
2023-05-17T18:12:29.650Z,13.20
2023-05-17T18:15:04.077Z,10.00
2023-05-17T18:17:38.078Z,13.70
2023-05-17T18:20:14.144Z,23.60
2023-05-17T18:22:48.461Z,10.80
2023-05-17T18:25:22.579Z,12.10
2023-05-17T18:27:57.349Z,16.50
2023-05-17T18:30:31.816Z,14.40
2023-05-17T18:33:08.171Z,12.20
2023-05-17T18:35:42.449Z,9.50
2023-05-17T18:38:16.315Z,6.10
2023-05-17T18:40:44.147Z,13.60
2023-05-17T18:43:12.071Z,21.20
2023-05-17T18:45:45.904Z,17.50
2023-05-17T18:48:23.178Z,14.70
2023-05-17T18:50:58.689Z,14.80
2023-05-17T18:53:32.630Z,13.80
2023-05-17T18:55:55.607Z,22.30
2023-05-17T18:58:31.005Z,10.10
2023-05-17T19:01:06.047Z,11.10
2023-05-17T19:03:27.934Z,16.30
2023-05-17T19:05:54.657Z,11.50
2023-05-17T19:08:27.503Z,23.40
2023-05-17T19:11:04.702Z,20.90
2023-05-17T19:13:28.309Z,15.40
2023-05-17T19:15:54.210Z,15.30
2023-05-17T19:18:19.054Z,10.80
2023-05-17T19:20:54.078Z,9.20
2023-05-17T19:23:29.391Z,8.90
2023-05-17T19:25:50.282Z,17.20
2023-05-17T19:28:19.179Z,8.10
2023-05-17T19:30:53.597Z,9.20
2023-05-17T19:33:29.421Z,10.50
2023-05-17T19:36:03.733Z,16.10
2023-05-17T19:38:29.778Z,9.80
2023-05-17T19:41:02.743Z,14.50
2023-05-17T19:43:38.133Z,12.40
2023-05-17T19:45:59.742Z,10.90
2023-05-17T19:48:34.031Z,10.10
2023-05-17T19:50:58.099Z,9.30
2023-05-17T19:53:21.257Z,12.40
2023-05-17T19:55:55.740Z,11.60
2023-05-17T19:58:30.667Z,14.20
2023-05-17T20:00:53.092Z,10.50
2023-05-17T20:03:28.376Z,7.60
2023-05-17T20:06:01.792Z,7.90
2023-05-17T20:08:36.180Z,16.90
2023-05-17T20:11:10.584Z,13.80
2023-05-17T20:13:35.230Z,6.90
2023-05-17T20:16:13.773Z,9.20
2023-05-17T20:18:48.933Z,10.10
2023-05-17T20:21:13.949Z,13.60
2023-05-17T20:23:37.250Z,8.10
2023-05-17T20:26:02.794Z,14.80
2023-05-17T20:28:41.208Z,15.50
2023-05-17T20:31:04.371Z,6.70
2023-05-17T20:33:37.759Z,8.70
2023-05-17T20:36:12.878Z,10.30
2023-05-17T20:38:47.023Z,11.10
2023-05-17T20:41:20.812Z,16.50
2023-05-17T20:43:51.998Z,8.70
2023-05-17T20:46:26.550Z,14.60
2023-05-17T20:49:00.310Z,9.70
2023-05-17T20:51:23.550Z,12.30
2023-05-17T20:53:58.327Z,10.00
2023-05-17T20:56:33.118Z,8.80
2023-05-17T20:58:55.538Z,13.00
2023-05-17T21:01:30.326Z,7.40
2023-05-17T21:04:04.691Z,13.60
2023-05-17T21:06:39.770Z,8.70
2023-05-17T21:09:14.025Z,16.20
2023-05-17T21:11:48.865Z,11.50
2023-05-17T21:14:23.955Z,12.50
2023-05-17T21:16:59.162Z,7.70
2023-05-17T21:19:33.171Z,11.60
2023-05-17T21:22:08.570Z,16.60
2023-05-17T21:24:23.146Z,9.90
2023-05-17T21:26:45.988Z,6.40
2023-05-17T21:29:20.509Z,8.80
2023-05-17T21:31:54.877Z,7.00
2023-05-17T21:34:18.269Z,13.70
2023-05-17T21:36:40.521Z,8.50
2023-05-17T21:39:14.458Z,8.30
2023-05-17T21:41:37.860Z,15.30
2023-05-17T21:44:01.215Z,10.40
2023-05-17T21:46:37.372Z,9.40
2023-05-17T21:49:12.393Z,12.50
2023-05-17T21:51:35.501Z,13.30
2023-05-17T21:54:08.938Z,8.30
2023-05-17T21:56:33.380Z,16.90
2023-05-17T21:59:07.495Z,8.30
2023-05-17T22:01:41.318Z,10.80
2023-05-17T22:04:09.599Z,10.20
2023-05-17T22:06:35.591Z,7.10
2023-05-17T22:09:10.609Z,11.00
2023-05-17T22:11:34.307Z,8.70
2023-05-17T22:13:57.620Z,11.40
2023-05-17T22:16:29.166Z,7.50
2023-05-17T22:18:46.565Z,8.80
2023-05-17T22:21:23.779Z,12.40
2023-05-17T22:23:58.199Z,9.60
2023-05-17T22:26:25.107Z,13.70
2023-05-17T22:29:00.616Z,13.60
2023-05-17T22:31:28.901Z,17.70
2023-05-17T22:34:05.561Z,5.50
2023-05-17T22:36:39.383Z,8.40
2023-05-17T22:39:08.219Z,4.40
2023-05-17T22:41:42.484Z,14.50
2023-05-17T22:44:04.971Z,7.50
2023-05-17T22:46:34.457Z,9.40
2023-05-17T22:49:08.444Z,12.50
2023-05-17T22:51:42.747Z,7.40
2023-05-17T22:54:16.818Z,13.50
2023-05-17T22:56:50.845Z,11.50
2023-05-17T22:59:27.513Z,8.70
2023-05-17T23:02:01.783Z,8.90
2023-05-17T23:04:35.888Z,8.20
2023-05-17T23:07:10.902Z,6.00
2023-05-17T23:09:44.910Z,6.50
2023-05-17T23:12:18.498Z,9.40
2023-05-17T23:14:52.632Z,14.80
2023-05-17T23:17:27.905Z,12.10
2023-05-17T23:20:10.702Z,9.50
2023-05-17T23:22:35.062Z,6.90
2023-05-17T23:25:09.468Z,11.00
2023-05-17T23:27:45.643Z,10.30
2023-05-17T23:30:20.445Z,11.80
2023-05-17T23:32:56.315Z,10.10
2023-05-17T23:35:19.046Z,12.40
2023-05-17T23:37:53.593Z,10.10
2023-05-17T23:40:27.795Z,8.10
2023-05-17T23:42:50.676Z,8.60
2023-05-17T23:45:25.533Z,13.20
2023-05-17T23:48:01.319Z,11.80
2023-05-17T23:50:27.388Z,7.50
2023-05-17T23:53:04.478Z,8.70
2023-05-17T23:55:39.549Z,11.10
2023-05-17T23:58:06.822Z,14.30
